Time;durP1;ratioP1;P1;durP2;ratioP2;P2;SDS_P1;SDS_P2;PMS_P1;PMS_P2;Temp;Humidity;BMP_temperature;BMP_pressure;BME280_temperature;BME280_humidity;BME280_pressure;Samples;Min_cycle;Max_cycle;Signal;HPM_P1;HPM_P2
2023/04/19 00:00:26;;;;;;;20.77;12.52;;;;;;;9.83;100.00;102696.44;4976911;28;20041;-71
2023/04/19 00:02:53;;;;;;;21.65;13.82;;;;;;;9.82;100.00;102689.38;4976501;28;20045;-70
2023/04/19 00:05:21;;;;;;;20.10;13.55;;;;;;;9.88;100.00;102690.97;4984244;28;20133;-71
2023/04/19 00:07:46;;;;;;;19.85;13.43;;;;;;;9.79;100.00;102686.81;4977028;28;20070;-70
2023/04/19 00:10:12;;;;;;;21.98;13.93;;;;;;;9.84;100.00;102692.88;4977373;28;20578;-71
2023/04/19 00:12:37;;;;;;;24.73;14.90;;;;;;;9.76;100.00;102686.91;4978003;28;20039;-70
2023/04/19 00:15:04;;;;;;;24.40;15.32;;;;;;;9.82;100.00;102694.69;4972494;28;20370;-71
2023/04/19 00:17:30;;;;;;;26.35;14.55;;;;;;;9.76;100.00;102686.91;4973369;28;20035;-69
2023/04/19 00:19:56;;;;;;;21.27;15.13;;;;;;;9.71;100.00;102687.03;4980779;28;20185;-70
2023/04/19 00:22:22;;;;;;;26.45;14.80;;;;;;;9.71;100.00;102686.16;4976773;28;20109;-71
2023/04/19 00:24:47;;;;;;;23.52;14.77;;;;;;;9.72;100.00;102685.25;4983460;28;20513;-72
2023/04/19 00:27:13;;;;;;;25.15;15.55;;;;;;;9.73;100.00;102674.53;4984589;28;20038;-72
2023/04/19 00:29:38;;;;;;;22.77;13.32;;;;;;;9.68;100.00;102679.13;4974894;28;20045;-71
2023/04/19 00:32:04;;;;;;;26.42;15.45;;;;;;;9.71;100.00;102675.50;4989962;28;20487;-72
2023/04/19 00:34:31;;;;;;;23.10;14.75;;;;;;;9.60;100.00;102683.84;4991557;28;20122;-72
2023/04/19 00:36:56;;;;;;;22.75;14.68;;;;;;;9.65;100.00;102686.34;4973093;28;20061;-72
2023/04/19 00:39:22;;;;;;;25.23;14.77;;;;;;;9.65;100.00;102673.03;4972799;28;20034;-72
2023/04/19 00:41:48;;;;;;;24.35;15.88;;;;;;;9.60;100.00;102675.84;4978948;28;20496;-72
2023/04/19 00:44:16;;;;;;;23.15;15.32;;;;;;;9.74;100.00;102668.31;4974217;28;20102;-72
2023/04/19 00:46:42;;;;;;;27.23;14.45;;;;;;;9.60;100.00;102675.84;4992203;28;20727;-72
2023/04/19 00:49:08;;;;;;;27.38;15.63;;;;;;;9.68;100.00;102664.94;4973056;28;20116;-72
2023/04/19 00:51:34;;;;;;;24.23;15.73;;;;;;;9.47;100.00;102672.66;4972343;28;20602;-72
2023/04/19 00:54:02;;;;;;;22.30;14.43;;;;;;;9.59;100.00;102672.31;4974736;28;20063;-71
2023/04/19 00:56:28;;;;;;;23.77;14.43;;;;;;;9.54;100.00;102670.69;4972096;28;20031;-72
2023/04/19 00:58:58;;;;;;;24.52;14.93;;;;;;;9.55;100.00;102660.00;4972906;28;20892;-71
2023/04/19 01:01:23;;;;;;;22.98;15.32;;;;;;;9.52;100.00;102664.53;4973143;28;20040;-71
2023/04/19 01:03:49;;;;;;;27.30;15.35;;;;;;;9.35;100.00;102667.69;4983267;28;20378;-71
2023/04/19 01:06:15;;;;;;;24.98;15.63;;;;;;;9.37;100.00;102668.50;4974470;28;20613;-71
2023/04/19 01:08:41;;;;;;;29.50;16.40;;;;;;;9.39;100.00;102665.78;4982757;28;20030;-71
2023/04/19 01:11:09;;;;;;;22.42;14.15;;;;;;;9.45;100.00;102673.63;4978364;28;20571;-71
2023/04/19 01:13:35;;;;;;;25.50;15.85;;;;;;;9.34;100.00;102658.84;4982996;28;20076;-72
2023/04/19 01:16:02;;;;;;;26.50;15.27;;;;;;;9.38;100.00;102664.94;4973607;28;20839;-72
2023/04/19 01:18:31;;;;;;;25.27;15.40;;;;;;;9.25;100.00;102653.78;4989419;28;20436;-72
2023/04/19 01:21:02;;;;;;;25.92;16.60;;;;;;;9.23;100.00;102663.56;4972955;28;20620;-71
2023/04/19 01:23:28;;;;;;;27.98;16.30;;;;;;;9.17;100.00;102657.56;4977342;28;20150;-71
2023/04/19 01:25:55;;;;;;;26.73;16.23;;;;;;;8.99;100.00;102659.84;4972975;28;20123;-71
2023/04/19 01:28:20;;;;;;;26.35;15.32;;;;;;;9.01;100.00;102650.00;4988969;28;20585;-72
2023/04/19 01:30:50;;;;;;;29.55;16.90;;;;;;;8.88;100.00;102653.03;4981795;28;20151;-72
2023/04/19 01:33:17;;;;;;;22.10;15.85;;;;;;;8.82;100.00;102662.06;4971845;28;20675;-72
2023/04/19 01:35:43;;;;;;;28.60;16.02;;;;;;;8.87;100.00;102657.50;4990296;28;20117;-71
2023/04/19 01:38:08;;;;;;;23.30;15.18;;;;;;;8.71;100.00;102658.81;4978716;28;20053;-71
2023/04/19 01:40:34;;;;;;;26.58;16.10;;;;;;;8.80;100.00;102661.25;4990198;28;20037;-71
2023/04/19 01:42:59;;;;;;;24.25;15.00;;;;;;;8.75;100.00;102655.19;4972953;28;20035;-71
2023/04/19 01:45:25;;;;;;;30.08;16.23;;;;;;;8.89;100.00;102655.69;4972293;28;20031;-71
2023/04/19 01:47:51;;;;;;;25.40;15.55;;;;;;;8.92;100.00;102654.72;4973396;28;20042;-71
2023/04/19 01:50:16;;;;;;;31.23;15.63;;;;;;;8.75;100.00;102648.06;4991925;28;20039;-71
2023/04/19 01:52:42;;;;;;;25.33;15.20;;;;;;;8.79;100.00;102649.75;4973861;28;20053;-71
2023/04/19 01:55:08;;;;;;;26.63;15.93;;;;;;;8.71;100.00;102658.81;4994769;28;20123;-71
2023/04/19 01:57:34;;;;;;;27.42;16.00;;;;;;;8.65;100.00;102654.53;4974610;28;20050;-71
2023/04/19 02:00:00;;;;;;;25.52;15.65;;;;;;;8.70;100.00;102654.44;4983981;28;20038;-71
2023/04/19 02:02:26;;;;;;;25.92;14.98;;;;;;;8.70;100.00;102649.09;4971744;28;20053;-71
2023/04/19 02:04:52;;;;;;;29.02;14.77;;;;;;;8.71;100.00;102651.72;4975897;28;20030;-71
2023/04/19 02:07:18;;;;;;;27.17;15.48;;;;;;;8.77;100.00;102653.34;4974878;28;20642;-70
2023/04/19 02:09:44;;;;;;;26.98;14.75;;;;;;;8.83;100.00;102647.84;4975599;28;20074;-71
2023/04/19 02:12:11;;;;;;;22.40;14.05;;;;;;;8.96;100.00;102645.72;4972547;28;20047;-71
2023/04/19 02:14:36;;;;;;;23.00;14.02;;;;;;;9.02;100.00;102648.22;4977828;28;20035;-71
2023/04/19 02:17:02;;;;;;;22.10;14.00;;;;;;;9.02;100.00;102648.22;4977663;28;20097;-70
2023/04/19 02:19:27;;;;;;;26.05;13.63;;;;;;;9.00;100.00;102648.28;4982472;28;21113;-71
2023/04/19 02:21:56;;;;;;;26.02;13.80;;;;;;;8.99;100.00;102649.19;4983426;28;20069;-71
2023/04/19 02:24:23;;;;;;;22.33;14.02;;;;;;;9.00;100.00;102650.94;4975851;28;20038;-71
2023/04/19 02:26:49;;;;;;;19.92;13.55;;;;;;;8.99;100.00;102645.66;4977370;28;20161;-71
2023/04/19 02:29:15;;;;;;;22.48;12.38;;;;;;;9.03;100.00;102642.84;4994953;28;20114;-70
2023/04/19 02:31:41;;;;;;;22.58;12.40;;;;;;;9.07;100.00;102651.63;5001351;28;20050;-72
2023/04/19 02:34:08;;;;;;;21.10;13.23;;;;;;;9.18;100.00;102651.31;4976629;28;20035;-71
2023/04/19 02:36:33;;;;;;;22.92;12.63;;;;;;;9.15;100.00;102662.94;4977767;28;20031;-72
2023/04/19 02:39:01;;;;;;;16.23;11.18;;;;;;;9.18;100.00;102651.31;4977228;28;20035;-72
2023/04/19 02:41:26;;;;;;;18.33;12.10;;;;;;;9.23;100.00;102644.06;4981757;28;20043;-72
2023/04/19 02:43:52;;;;;;;20.20;11.43;;;;;;;9.30;100.00;102643.88;4975747;28;20051;-73
2023/04/19 02:46:18;;;;;;;16.45;10.80;;;;;;;9.31;100.00;102645.59;4973895;28;20097;-70
2023/04/19 02:48:44;;;;;;;18.52;10.77;;;;;;;9.34;100.00;102650.84;4974747;28;20053;-70
2023/04/19 02:51:16;;;;;;;16.92;10.52;;;;;;;9.33;100.00;102648.22;4989539;28;20043;-70
2023/04/19 02:53:42;;;;;;;;;;;;;;;9.34;100.00;102644.66;4974680;28;20042;-71
2023/04/19 02:56:08;;;;;;;18.67;11.00;;;;;;;9.33;100.00;102650.88;4980278;28;20715;-70
2023/04/19 02:58:34;;;;;;;17.08;10.60;;;;;;;9.39;100.00;102647.16;4966311;28;20030;-72
2023/04/19 03:01:03;;;;;;;18.17;10.30;;;;;;;9.37;100.00;102651.66;4982338;28;20042;-72
2023/04/19 03:03:29;;;;;;;17.42;11.48;;;;;;;9.38;100.00;102656.06;4978700;28;20038;-72
2023/04/19 03:05:54;;;;;;;21.90;11.25;;;;;;;9.40;100.00;102652.47;4976853;28;20043;-72
2023/04/19 03:08:20;;;;;;;16.38;10.70;;;;;;;9.33;100.00;102657.06;4974967;28;20046;-70
2023/04/19 03:10:46;;;;;;;18.05;10.48;;;;;;;9.41;100.00;102650.66;4993134;28;20087;-70
2023/04/19 03:13:12;;;;;;;18.25;10.90;;;;;;;9.36;100.00;102661.44;4974441;28;20041;-72
2023/04/19 03:15:38;;;;;;;15.80;9.40;;;;;;;9.32;100.00;102662.44;4976306;28;20740;-72
2023/04/19 03:18:04;;;;;;;16.83;10.25;;;;;;;9.34;100.00;102650.84;4974377;28;20035;-72
2023/04/19 03:20:29;;;;;;;13.60;9.55;;;;;;;9.38;100.00;102648.09;4981909;28;20818;-72
2023/04/19 03:22:56;;;;;;;18.20;10.68;;;;;;;9.33;100.00;102662.41;4985990;28;20030;-72
2023/04/19 03:25:21;;;;;;;14.82;9.98;;;;;;;9.37;100.00;102638.34;4981345;28;20030;-72
2023/04/19 03:27:55;;;;;;;17.65;9.55;;;;;;;9.40;100.00;102647.13;4971219;28;20512;-72
2023/04/19 03:30:35;;;;;;;17.75;10.07;;;;;;;9.38;100.00;102640.97;4992217;28;20133;-72
2023/04/19 03:33:01;;;;;;;17.23;9.63;;;;;;;9.39;100.00;102642.72;4973113;28;20035;-72
2023/04/19 03:35:28;;;;;;;15.73;10.25;;;;;;;9.34;100.00;102632.22;4981789;28;20038;-72
2023/04/19 03:37:57;;;;;;;15.75;9.52;;;;;;;9.24;100.00;102638.72;4989612;28;20041;-70
2023/04/19 03:40:23;;;;;;;15.35;9.52;;;;;;;9.29;100.00;102638.59;4978973;28;20038;-72
2023/04/19 03:42:48;;;;;;;15.50;10.60;;;;;;;9.19;100.00;102637.13;4967203;28;20490;-70
2023/04/19 03:45:23;;;;;;;15.57;9.55;;;;;;;9.14;100.00;102641.69;4971175;28;20030;-71
2023/04/19 03:47:49;;;;;;;18.05;10.05;;;;;;;9.04;100.00;102651.72;4973178;28;20035;-72
2023/04/19 03:50:15;;;;;;;16.70;10.65;;;;;;;8.92;100.00;102657.38;4983701;28;20049;-72
2023/04/19 03:52:45;;;;;;;12.85;8.60;;;;;;;8.90;100.00;102641.47;4971616;28;20043;-72
2023/04/19 03:55:12;;;;;;;15.20;10.43;;;;;;;8.80;100.00;102643.50;4972712;28;20038;-72
2023/04/19 03:57:39;;;;;;;14.90;9.63;;;;;;;8.70;100.00;102649.97;4971722;28;20935;-72
2023/04/19 04:00:15;;;;;;;14.98;10.05;;;;;;;8.59;100.00;102651.19;4974170;28;20474;-72
2023/04/19 04:02:40;;;;;;;14.55;9.45;;;;;;;8.50;100.00;102642.53;4971972;28;20046;-73
2023/04/19 04:05:06;;;;;;;17.60;9.57;;;;;;;8.50;100.00;102647.84;4990838;28;20034;-73
2023/04/19 04:07:33;;;;;;;16.85;9.93;;;;;;;8.45;100.00;102643.56;4989471;28;20126;-72
2023/04/19 04:10:00;;;;;;;16.13;9.77;;;;;;;8.36;100.00;102643.75;4968134;28;20038;-72
2023/04/19 04:12:26;;;;;;;16.45;9.50;;;;;;;8.32;100.00;102645.59;4975218;28;20065;-72
2023/04/19 04:14:54;;;;;;;15.73;9.40;;;;;;;8.31;100.00;102646.50;4977055;28;20027;-71
2023/04/19 04:17:21;;;;;;;21.10;9.70;;;;;;;8.21;100.00;102645.88;4973381;28;20956;-71
2023/04/19 04:19:46;;;;;;;16.92;9.20;;;;;;;8.15;100.00;102655.78;4995454;28;20039;-72
2023/04/19 04:22:12;;;;;;;16.23;10.20;;;;;;;8.20;100.00;102653.88;4978616;28;20051;-71
2023/04/19 04:24:41;;;;;;;12.63;8.52;;;;;;;8.16;100.00;102646.88;4975930;28;20813;-71
2023/04/19 04:27:20;;;;;;;12.70;8.88;;;;;;;8.13;100.00;102652.25;4971655;28;20061;-71
2023/04/19 04:29:48;;;;;;;14.82;9.18;;;;;;;8.13;100.00;102650.47;4978818;28;20039;-71
2023/04/19 04:32:16;;;;;;;16.80;9.48;;;;;;;8.13;100.00;102653.13;4978536;28;20034;-71
2023/04/19 04:34:43;;;;;;;14.00;9.25;;;;;;;8.23;100.00;102648.47;4972565;28;20034;-71
2023/04/19 04:37:13;;;;;;;20.38;9.15;;;;;;;8.12;100.00;102653.19;4977224;28;20051;-71
2023/04/19 04:39:39;;;;;;;14.60;9.80;;;;;;;8.05;100.00;102650.69;4989959;28;20046;-71
2023/04/19 04:42:07;;;;;;;15.70;9.30;;;;;;;8.02;100.00;102639.25;4960733;28;20153;-71
2023/04/19 04:44:37;;;;;;;14.73;9.07;;;;;;;7.94;100.00;102649.19;4971008;28;20093;-71
2023/04/19 04:47:04;;;;;;;15.55;8.95;;;;;;;8.01;100.00;102645.47;4978661;28;20038;-70
2023/04/19 04:49:35;;;;;;;13.18;8.68;;;;;;;7.91;100.00;102650.13;4989158;28;20031;-70
2023/04/19 04:52:01;;;;;;;15.80;9.52;;;;;;;7.95;100.00;102646.50;4987816;28;20856;-70
2023/04/19 04:54:30;;;;;;;14.45;8.93;;;;;;;7.88;100.00;102647.56;4989985;28;20034;-70
2023/04/19 04:56:58;;;;;;;12.43;8.82;;;;;;;7.93;100.00;102653.63;4987888;28;20141;-70
2023/04/19 04:59:23;;;;;;;15.45;8.57;;;;;;;7.96;100.00;102650.03;4976779;28;20034;-70
2023/04/19 05:01:49;;;;;;;15.93;9.75;;;;;;;7.87;100.00;102651.09;4976135;28;20039;-71
2023/04/19 05:04:15;;;;;;;12.48;8.55;;;;;;;7.86;100.00;102651.16;4977182;28;20114;-70
2023/04/19 05:06:43;;;;;;;14.15;8.70;;;;;;;7.87;100.00;102645.78;4975359;28;20914;-70
2023/04/19 05:09:09;;;;;;;16.83;9.25;;;;;;;7.85;100.00;102660.03;4972924;28;20070;-70
2023/04/19 05:11:35;;;;;;;13.82;8.38;;;;;;;7.88;100.00;102654.63;4966615;28;20038;-70
2023/04/19 05:14:02;;;;;;;16.38;8.63;;;;;;;7.89;100.00;102653.75;4974247;28;20185;-70
2023/04/19 05:16:28;;;;;;;13.98;8.25;;;;;;;7.88;100.00;102657.28;4977145;28;20323;-70
2023/04/19 05:18:54;;;;;;;11.38;8.32;;;;;;;7.74;100.00;102660.28;4963811;28;20488;-70
2023/04/19 05:21:21;;;;;;;15.13;9.00;;;;;;;7.88;100.00;102655.53;4969979;28;20034;-70
2023/04/19 05:23:46;;;;;;;15.27;9.02;;;;;;;7.88;100.00;102646.66;4971978;28;20039;-71
2023/04/19 05:26:14;;;;;;;12.88;8.52;;;;;;;7.89;100.00;102659.06;4976769;28;20035;-70
2023/04/19 05:28:43;;;;;;;15.10;9.30;;;;;;;7.76;100.00;102656.66;4995376;28;20039;-70
2023/04/19 05:31:14;;;;;;;17.23;9.13;;;;;;;7.82;100.00;102658.28;4988396;28;20039;-70
2023/04/19 05:33:54;;;;;;;15.88;9.10;;;;;;;7.84;100.00;102658.28;4973504;28;20090;-70
2023/04/19 05:36:20;;;;;;;11.95;8.15;;;;;;;7.94;100.00;102651.84;4974378;28;20035;-72
2023/04/19 05:38:46;;;;;;;14.77;9.07;;;;;;;8.04;100.00;102656.03;4972383;28;20692;-71
2023/04/19 05:41:11;;;;;;;10.57;7.68;;;;;;;8.03;100.00;102657.81;4975561;28;20049;-71
2023/04/19 05:43:37;;;;;;;9.65;6.93;;;;;;;8.09;100.00;102661.25;4993681;28;20050;-71
2023/04/19 05:46:04;;;;;;;12.13;8.10;;;;;;;8.19;100.00;102661.00;4972839;28;20861;-72
2023/04/19 05:48:30;;;;;;;13.38;7.82;;;;;;;8.29;100.00;102653.66;4990270;28;20182;-72
2023/04/19 05:51:17;;;;;;;12.27;8.65;;;;;;;8.38;100.00;102655.22;4946686;28;21056;-72
2023/04/19 05:53:56;;;;;;;14.65;7.82;;;;;;;8.50;100.00;102658.47;4969435;28;20031;-72
2023/04/19 05:56:21;;;;;;;13.40;8.30;;;;;;;8.52;100.00;102661.94;4974567;28;20074;-72
2023/04/19 05:58:47;;;;;;;11.85;7.57;;;;;;;8.73;100.00;102660.50;4971413;28;20046;-71
2023/04/19 06:01:13;;;;;;;10.32;7.50;;;;;;;8.84;97.81;102656.72;4978722;28;20061;-72
2023/04/19 06:03:39;;;;;;;14.15;7.40;;;;;;;8.86;94.32;102657.53;4985911;28;20893;-71
2023/04/19 06:06:05;;;;;;;11.07;6.90;;;;;;;8.91;90.86;102663.63;4976695;28;20065;-71
2023/04/19 06:08:30;;;;;;;13.73;7.40;;;;;;;8.84;90.43;102662.03;4985183;28;20035;-71
2023/04/19 06:10:56;;;;;;;9.77;6.70;;;;;;;9.11;86.67;102669.25;4981136;28;20030;-71
2023/04/19 06:13:22;;;;;;;8.70;6.75;;;;;;;9.08;83.24;102659.56;4977834;28;20043;-71
2023/04/19 06:15:48;;;;;;;9.65;6.38;;;;;;;9.27;82.85;102677.69;4982842;28;20038;-71
2023/04/19 06:18:14;;;;;;;11.35;6.35;;;;;;;9.47;80.08;102666.47;4975165;28;20114;-71
2023/04/19 06:20:40;;;;;;;11.32;6.25;;;;;;;9.38;78.55;102667.59;4975095;28;20039;-70
2023/04/19 06:23:06;;;;;;;10.93;6.78;;;;;;;9.31;76.14;102669.56;4975403;28;20137;-70
2023/04/19 06:25:32;;;;;;;12.90;6.57;;;;;;;9.41;75.27;102667.50;4970022;28;20069;-70
2023/04/19 06:27:58;;;;;;;10.85;6.35;;;;;;;9.63;76.68;102672.19;4971838;28;20046;-70
2023/04/19 06:30:23;;;;;;;16.98;6.22;;;;;;;9.53;73.57;102666.25;4972296;28;20027;-71
2023/04/19 06:32:49;;;;;;;10.77;6.10;;;;;;;10.00;73.82;102666.63;4976492;28;20848;-70
2023/04/19 06:35:15;;;;;;;12.20;6.07;;;;;;;10.18;71.09;102655.34;4981387;28;20038;-72
2023/04/19 06:37:40;;;;;;;10.98;6.15;;;;;;;10.23;70.93;102666.75;4975156;28;20518;-72
2023/04/19 06:40:07;;;;;;;8.70;5.68;;;;;;;10.13;66.37;102675.94;4973303;28;20035;-72
2023/04/19 06:42:34;;;;;;;11.35;5.53;;;;;;;10.06;65.76;102667.28;4977242;28;20046;-72
2023/04/19 06:44:59;;;;;;;7.93;5.47;;;;;;;10.03;64.07;102671.84;4988897;28;20073;-72
2023/04/19 06:47:26;;;;;;;11.85;5.47;;;;;;;10.29;65.57;102669.25;4974615;28;20053;-71
2023/04/19 06:49:51;;;;;;;9.18;5.25;;;;;;;10.30;64.45;102660.34;4971861;28;20114;-72
2023/04/19 06:52:17;;;;;;;9.15;4.65;;;;;;;10.38;64.03;102673.41;4976119;28;20408;-72
2023/04/19 06:54:49;;;;;;;10.38;4.97;;;;;;;9.93;61.59;102673.91;4973134;28;20065;-72
2023/04/19 06:57:18;;;;;;;9.02;5.28;;;;;;;10.15;61.13;102670.59;4971575;28;20164;-71
2023/04/19 06:59:44;;;;;;;8.40;4.72;;;;;;;10.14;61.61;102688.38;4969267;28;20039;-71
2023/04/19 07:02:09;;;;;;;8.73;4.55;;;;;;;10.31;60.77;102671.88;4981856;28;20045;-71
2023/04/19 07:04:35;;;;;;;7.07;4.65;;;;;;;10.60;61.49;102677.09;4985128;28;20154;-70
2023/04/19 07:07:02;;;;;;;10.07;4.75;;;;;;;10.47;61.24;102674.91;4976652;28;20035;-72
2023/04/19 07:09:28;;;;;;;5.93;4.47;;;;;;;10.46;61.51;102671.34;4973731;28;20093;-70
2023/04/19 07:11:54;;;;;;;13.70;4.50;;;;;;;10.25;59.24;102656.94;4977375;28;20755;-70
2023/04/19 07:14:20;;;;;;;8.30;4.35;;;;;;;10.15;61.18;102681.25;4980954;28;20045;-72
2023/04/19 07:16:46;;;;;;;7.72;4.40;;;;;;;10.33;60.93;102673.53;4989953;28;20248;-71
2023/04/19 07:19:12;;;;;;;8.73;4.00;;;;;;;10.30;60.74;102676.34;4974916;28;20034;-71
2023/04/19 07:21:38;;;;;;;9.65;4.57;;;;;;;10.47;61.92;102675.75;4977836;28;20115;-71
2023/04/19 07:24:05;;;;;;;12.00;4.13;;;;;;;10.49;60.81;102675.69;4976114;28;20066;-71
2023/04/19 07:26:31;;;;;;;10.75;4.95;;;;;;;10.58;60.14;102675.41;4979381;28;20471;-71
2023/04/19 07:28:59;;;;;;;8.95;4.30;;;;;;;10.35;60.78;102676.19;4991634;28;20074;-72
2023/04/19 07:31:25;;;;;;;6.78;4.13;;;;;;;10.17;60.55;102682.06;4990723;28;20142;-71
2023/04/19 07:33:51;;;;;;;10.35;4.65;;;;;;;10.51;61.06;102671.22;4983678;28;20108;-72
2023/04/19 07:36:16;;;;;;;9.70;3.92;;;;;;;10.29;60.13;102671.03;4977857;28;20106;-70
2023/04/19 07:38:42;;;;;;;6.72;4.13;;;;;;;10.36;59.88;102681.47;4993446;28;20567;-70
2023/04/19 07:41:08;;;;;;;13.05;3.90;;;;;;;10.34;60.26;102677.97;4983440;28;21219;-70
2023/04/19 07:43:34;;;;;;;9.07;4.72;;;;;;;10.32;59.38;102677.13;4982135;28;20043;-71
2023/04/19 07:46:01;;;;;;;5.95;3.92;;;;;;;10.53;59.72;102666.69;4979683;28;20038;-71
2023/04/19 07:48:26;;;;;;;7.63;4.03;;;;;;;10.40;58.23;102682.25;4989612;28;20036;-71
2023/04/19 07:50:52;;;;;;;5.50;4.07;;;;;;;10.66;58.01;102672.47;4977428;28;20038;-71
2023/04/19 07:53:18;;;;;;;5.72;3.72;;;;;;;10.73;57.97;102666.88;4975495;28;20039;-71
2023/04/19 07:55:43;;;;;;;6.85;4.22;;;;;;;11.03;58.98;102675.59;4978363;28;20078;-71
2023/04/19 07:58:10;;;;;;;6.47;3.78;;;;;;;11.04;57.84;102671.13;4974234;28;20039;-71
2023/04/19 08:00:36;;;;;;;10.07;3.78;;;;;;;11.19;57.32;102681.25;4978474;28;20665;-71
2023/04/19 08:03:03;;;;;;;7.10;3.58;;;;;;;10.87;56.64;102675.25;4986938;28;20042;-71
2023/04/19 08:05:30;;;;;;;6.00;3.20;;;;;;;10.82;56.96;102676.34;4981194;28;20035;-70
2023/04/19 08:07:56;;;;;;;5.00;3.45;;;;;;;10.92;58.43;102692.91;4984975;28;20035;-70
2023/04/19 08:10:22;;;;;;;7.80;3.55;;;;;;;10.72;57.67;102689.16;4982184;28;20047;-69
2023/04/19 08:12:48;;;;;;;4.50;3.35;;;;;;;10.69;58.20;102673.22;4990451;28;20375;-72
2023/04/19 08:15:14;;;;;;;7.95;3.53;;;;;;;10.98;58.94;102669.53;4973613;28;20043;-70
2023/04/19 08:17:43;;;;;;;4.45;2.85;;;;;;;11.04;58.29;102671.13;4974032;28;20039;-70
2023/04/19 08:20:11;;;;;;;6.35;3.40;;;;;;;11.03;57.88;102693.41;4978271;28;20034;-72
2023/04/19 08:22:38;;;;;;;7.63;3.58;;;;;;;10.99;57.38;102659.72;4976175;28;20043;-72
2023/04/19 08:25:06;;;;;;;8.88;3.38;;;;;;;10.82;57.20;102665.69;4981892;28;20045;-72
2023/04/19 08:27:31;;;;;;;6.68;3.38;;;;;;;10.96;56.73;102675.88;4990250;28;20159;-72
2023/04/19 08:29:57;;;;;;;4.13;2.90;;;;;;;10.98;56.82;102666.88;4981551;28;20356;-72
2023/04/19 08:42:48;;;;;;;5.90;2.83;;;;;;;10.76;56.54;102663.22;5004043;28;20184;-93
2023/04/19 08:45:15;;;;;;;9.35;2.70;;;;;;;10.93;56.62;102674.19;5010945;28;20046;-93
2023/04/19 08:47:43;;;;;;;3.80;2.60;;;;;;;11.25;58.19;102666.81;5001995;28;21093;-91
2023/04/19 08:50:09;;;;;;;9.07;3.45;;;;;;;11.49;58.17;102671.22;4979846;28;20063;-92
2023/04/19 08:52:37;;;;;;;10.30;2.65;;;;;;;11.23;54.70;102669.53;4985612;28;20061;-93
2023/04/19 08:55:08;;;;;;;4.85;2.90;;;;;;;11.15;55.28;102666.28;4970833;28;20157;-91
2023/04/19 08:57:49;;;;;;;5.22;2.25;;;;;;;11.18;55.85;102679.50;4972972;28;20136;-92
2023/04/19 09:00:17;;;;;;;4.70;2.72;;;;;;;11.35;55.63;102661.06;4991700;28;20035;-92
2023/04/19 09:02:49;;;;;;;5.60;2.40;;;;;;;11.39;56.52;102675.16;5006910;28;20045;-91
2023/04/19 09:05:30;;;;;;;5.13;2.33;;;;;;;11.18;57.69;102681.31;4988943;28;20038;-92
2023/04/19 09:08:23;;;;;;;6.30;2.42;;;;;;;11.23;57.38;102666.84;4988874;28;20049;-92
2023/04/19 09:11:09;;;;;;;3.97;2.95;;;;;;;11.02;56.77;102662.31;4984329;28;20180;-92
2023/04/19 09:13:41;;;;;;;4.90;2.30;;;;;;;11.15;55.88;102672.50;5006659;28;20496;-93
2023/04/19 09:16:22;;;;;;;2.80;2.50;;;;;;;11.03;56.78;102666.72;4999546;28;20038;-92
2023/04/19 09:18:57;;;;;;;8.90;2.85;;;;;;;11.05;55.89;102656.88;4994843;28;20035;-91
2023/04/19 09:21:30;;;;;;;8.63;2.58;;;;;;;11.19;55.48;102664.34;4984345;28;20037;-90
2023/04/19 09:23:59;;;;;;;6.53;2.60;;;;;;;11.09;54.88;102653.13;4988904;28;20052;-91
2023/04/19 09:26:28;;;;;;;3.28;2.55;;;;;;;11.45;55.49;102658.06;5006964;28;20133;-91
2023/04/19 09:29:03;;;;;;;4.63;2.83;;;;;;;11.10;52.92;102658.44;4990793;28;20050;-89
2023/04/19 09:31:37;;;;;;;8.10;2.50;;;;;;;11.30;53.94;102660.38;4992494;28;20129;-89
2023/04/19 09:34:15;;;;;;;3.70;2.25;;;;;;;11.56;54.08;102634.47;4993641;28;21227;-89
2023/04/19 09:36:47;;;;;;;6.32;2.40;;;;;;;12.01;57.21;102655.88;5008644;28;20046;-88
2023/04/19 09:39:13;;;;;;;4.80;2.58;;;;;;;11.50;53.55;102651.63;4998617;28;20049;-89
2023/04/19 09:41:52;;;;;;;2.45;2.25;;;;;;;12.00;55.62;102634.53;5016730;28;20107;-88
2023/04/19 09:44:19;;;;;;;7.05;2.45;;;;;;;11.72;56.01;102635.63;5045346;22;20073;-70
2023/04/19 09:47:20;;;;;;;4.68;2.40;;;;;;;11.81;57.91;102651.28;5020457;28;20961;-71
2023/04/19 09:50:02;;;;;;;14.65;3.67;;;;;;;11.57;54.24;102623.72;5018544;28;20041;-70
2023/04/19 09:52:28;;;;;;;;;;;;;;;11.94;54.42;102624.97;4994688;28;20146;-70
2023/04/19 09:54:57;;;;;;;12.20;2.35;;;;;;;11.86;51.76;102627.09;5013954;28;19927;-70
2023/04/19 09:57:23;;;;;;;5.00;2.72;;;;;;;11.77;52.36;102627.41;4998011;28;20034;-71
2023/04/19 09:59:48;;;;;;;5.25;2.28;;;;;;;11.77;52.79;102620.25;5012511;28;20033;-70
2023/04/19 10:02:15;;;;;;;5.53;2.80;;;;;;;11.98;53.34;102621.22;5006501;28;20482;-70
2023/04/19 10:04:42;;;;;;;6.10;2.40;;;;;;;12.00;52.74;102611.38;5021049;28;20047;-70
2023/04/19 10:07:08;;;;;;;4.70;2.40;;;;;;;12.13;53.41;102620.59;5024722;28;20489;-70
2023/04/19 10:09:35;;;;;;;3.25;2.25;;;;;;;12.57;54.61;102614.31;5025443;28;20085;-70
2023/04/19 10:12:02;;;;;;;3.13;2.17;;;;;;;12.25;51.12;102605.88;5014824;28;20784;-71
2023/04/19 10:14:39;;;;;;;7.65;2.55;;;;;;;12.18;51.47;102615.06;5000489;28;20038;-70
2023/04/19 10:17:05;;;;;;;4.88;2.00;;;;;;;12.40;52.30;102609.69;5025593;28;20116;-69
2023/04/19 10:19:36;;;;;;;4.10;2.47;;;;;;;12.60;50.31;102606.13;5016137;28;20100;-70
2023/04/19 10:22:05;;;;;;;4.30;2.30;;;;;;;12.36;49.88;102614.31;5020722;28;20069;-70
2023/04/19 10:24:32;;;;;;;5.15;2.65;;;;;;;12.36;50.55;102610.75;5022245;28;20686;-70
2023/04/19 10:27:07;;;;;;;5.47;3.15;;;;;;;12.35;50.76;102600.97;5017834;28;20587;-70
2023/04/19 10:30:09;;;;;;;16.35;3.30;;;;;;;12.21;50.19;102612.28;4987281;28;20049;-70
2023/04/19 10:32:43;;;;;;;17.02;3.65;;;;;;;12.49;50.76;102595.91;5019601;28;20674;-70
2023/04/19 10:35:31;;;;;;;5.05;2.70;;;;;;;12.62;50.95;102593.56;5007658;28;20038;-70
2023/04/19 10:38:06;;;;;;;8.95;3.22;;;;;;;13.12;51.80;102587.75;5022838;28;20112;-71
2023/04/19 10:40:56;;;;;;;6.97;2.83;;;;;;;12.81;48.64;102591.81;5005476;28;20072;-71
2023/04/19 10:43:34;;;;;;;5.10;2.72;;;;;;;12.83;49.42;102589.06;5019672;28;20042;-71
2023/04/19 10:46:15;;;;;;;7.18;2.55;;;;;;;12.66;46.63;102589.84;5003659;28;20114;-71
2023/04/19 10:48:53;;;;;;;3.17;2.30;;;;;;;12.70;46.37;102576.25;5015135;28;20081;-71
2023/04/19 10:51:42;;;;;;;3.67;2.70;;;;;;;12.78;46.20;102578.56;5017572;28;20041;-71
2023/04/19 10:54:26;;;;;;;7.63;3.17;;;;;;;13.19;48.58;102573.13;5016792;28;20034;-71
2023/04/19 10:56:58;;;;;;;5.82;2.67;;;;;;;12.87;45.80;102574.63;5027911;28;20084;-71
2023/04/19 10:59:24;;;;;;;6.03;2.53;;;;;;;13.17;46.46;102572.34;5013614;28;20030;-71
2023/04/19 11:01:55;;;;;;;4.70;2.50;;;;;;;13.18;45.59;102558.88;5020615;28;20049;-71
2023/04/19 11:04:29;;;;;;;9.27;2.42;;;;;;;13.09;45.50;102555.75;5022544;28;20030;-71
2023/04/19 11:06:55;;;;;;;7.05;2.60;;;;;;;13.28;45.57;102547.75;5019856;28;20046;-71
2023/04/19 11:09:24;;;;;;;13.55;3.10;;;;;;;13.20;44.67;102545.38;5022153;28;20144;-70
2023/04/19 11:11:51;;;;;;;8.27;3.40;;;;;;;13.14;43.95;102543.00;5011538;28;20038;-70
2023/04/19 11:14:19;;;;;;;17.27;3.60;;;;;;;13.07;43.34;102545.13;5026236;28;20121;-70
2023/04/19 11:16:45;;;;;;;6.57;2.83;;;;;;;13.08;41.65;102533.44;5005041;28;20321;-70
2023/04/19 11:19:20;;;;;;;5.18;2.95;;;;;;;13.33;42.76;102543.91;5022153;28;20068;-70
2023/04/19 11:21:47;;;;;;;6.15;2.80;;;;;;;13.54;43.81;102523.25;5030528;28;20034;-70
2023/04/19 11:24:17;;;;;;;4.38;2.78;;;;;;;13.25;41.32;102523.78;5014966;28;20033;-71
2023/04/19 11:26:44;;;;;;;11.00;2.65;;;;;;;13.32;40.96;102519.88;5030732;28;20042;-70
2023/04/19 11:29:15;;;;;;;7.53;2.85;;;;;;;13.64;40.53;102510.25;5015184;28;20156;-69
2023/04/19 11:31:45;;;;;;;8.90;2.72;;;;;;;13.46;40.83;102506.69;4997292;28;20140;-69
2023/04/19 11:34:11;;;;;;;5.47;3.00;;;;;;;13.45;41.33;102511.19;5031157;28;20034;-69